Time;durP1;ratioP1;P1;durP2;ratioP2;P2;SDS_P1;SDS_P2;PMS_P1;PMS_P2;Temp;Humidity;BMP_temperature;BMP_pressure;BME280_temperature;BME280_humidity;BME280_pressure;Samples;Min_cycle;Max_cycle;Signal;HPM_P1;HPM_P2
2022/07/15 00:01:37;;;;;;;9.60;6.13;;;;;;;16.15;82.80;98011.44;4790345;29;20043;-63
2022/07/15 00:04:03;;;;;;;10.50;7.82;;;;;;;16.14;82.44;98025.88;4782080;30;20043;-63
2022/07/15 00:06:29;;;;;;;7.45;6.75;;;;;;;16.08;82.65;98021.75;4787090;30;20509;-63
2022/07/15 00:08:55;;;;;;;7.15;6.45;;;;;;;16.04;82.51;98023.47;4788481;30;20050;-63
2022/07/15 00:11:20;;;;;;;8.70;6.18;;;;;;;16.01;82.73;98014.19;4788468;30;20039;-64
2022/07/15 00:13:46;;;;;;;7.68;5.88;;;;;;;15.99;82.12;98016.38;4790205;29;20192;-63
2022/07/15 00:16:13;;;;;;;9.80;6.72;;;;;;;15.98;82.29;98022.03;4806652;29;20043;-65
2022/07/15 00:18:40;;;;;;;8.82;5.50;;;;;;;15.94;82.48;98007.69;4790223;29;20111;-65
2022/07/15 00:21:06;;;;;;;6.38;5.60;;;;;;;15.92;82.40;98015.25;4806282;29;20058;-65
2022/07/15 00:23:32;;;;;;;6.38;5.78;;;;;;;15.90;82.03;98015.53;4789549;29;20585;-63
2022/07/15 00:25:58;;;;;;;7.05;5.78;;;;;;;15.88;82.07;98013.19;4771862;30;20079;-65
2022/07/15 00:28:24;;;;;;;8.52;6.18;;;;;;;15.88;82.10;98017.72;4788601;30;20126;-64
2022/07/15 00:30:50;;;;;;;11.88;8.07;;;;;;;15.87;81.77;98011.59;4786893;30;20411;-63
2022/07/15 00:33:16;;;;;;;6.47;5.70;;;;;;;15.87;82.10;98005.44;4788368;29;20047;-64
2022/07/15 00:35:42;;;;;;;9.07;7.28;;;;;;;15.85;82.20;98013.78;4786883;30;20046;-64
2022/07/15 00:38:09;;;;;;;7.63;6.18;;;;;;;15.82;82.19;98019.72;4786926;30;20157;-63
2022/07/15 00:40:45;;;;;;;6.10;5.45;;;;;;;15.79;82.08;98019.53;4771774;30;20494;-63
2022/07/15 00:43:11;;;;;;;9.15;6.07;;;;;;;15.74;82.34;98003.66;4787580;29;20067;-63
2022/07/15 00:45:38;;;;;;;7.00;5.53;;;;;;;15.71;82.49;98013.06;4787771;30;20055;-64
2022/07/15 00:48:04;;;;;;;7.68;5.50;;;;;;;15.70;82.35;98011.47;4788104;30;20050;-63
2022/07/15 00:50:30;;;;;;;10.02;5.65;;;;;;;15.71;82.60;98009.59;4787045;29;20057;-64
2022/07/15 00:53:17;;;;;;;6.00;5.40;;;;;;;15.66;82.85;98016.59;4789588;29;20043;-64
2022/07/15 00:55:45;;;;;;;7.85;5.15;;;;;;;15.65;82.83;98009.69;4805736;29;20529;-64
2022/07/15 00:58:16;;;;;;;7.03;6.07;;;;;;;15.63;82.76;98011.88;4805948;29;20474;-63
2022/07/15 01:00:44;;;;;;;7.57;6.00;;;;;;;15.58;83.13;98011.97;4804825;29;20390;-62
2022/07/15 01:03:10;;;;;;;6.93;5.65;;;;;;;15.59;82.89;98015.47;4791404;29;20163;-63
2022/07/15 01:05:37;;;;;;;7.00;5.45;;;;;;;15.57;82.89;98023.78;4786315;30;20489;-62
2022/07/15 01:08:03;;;;;;;10.55;5.50;;;;;;;15.55;82.89;98020.59;4773090;29;20058;-62
2022/07/15 01:10:29;;;;;;;6.43;5.82;;;;;;;15.53;83.18;98028.16;4774291;29;20096;-64
2022/07/15 01:12:55;;;;;;;7.15;5.45;;;;;;;15.54;83.06;98031.59;4774407;29;20054;-61
2022/07/15 01:15:27;;;;;;;8.95;5.65;;;;;;;15.54;83.06;98040.41;4775172;29;20061;-62
2022/07/15 01:17:53;;;;;;;7.15;5.53;;;;;;;15.52;82.90;98034.56;4789271;29;20130;-64
2022/07/15 01:20:20;;;;;;;6.28;5.65;;;;;;;15.52;82.88;98034.56;4789151;29;20066;-61
2022/07/15 01:22:53;;;;;;;9.75;5.50;;;;;;;15.53;83.19;98048.69;4774148;29;20413;-63
2022/07/15 01:25:20;;;;;;;9.65;5.35;;;;;;;15.53;83.11;98043.34;4789037;29;20093;-64
2022/07/15 01:27:46;;;;;;;8.20;5.90;;;;;;;15.49;83.11;98042.41;4789145;29;20091;-63
2022/07/15 01:30:19;;;;;;;6.25;5.65;;;;;;;15.51;83.20;98051.69;4767987;30;20054;-62
2022/07/15 01:32:46;;;;;;;6.35;5.38;;;;;;;15.50;83.29;98054.66;4771136;30;20476;-63
2022/07/15 01:35:12;;;;;;;8.20;5.78;;;;;;;15.51;83.04;98056.25;4786158;30;20139;-63
2022/07/15 01:37:41;;;;;;;10.55;6.72;;;;;;;15.53;83.48;98065.53;4771196;30;20074;-63
2022/07/15 01:40:07;;;;;;;7.80;5.88;;;;;;;15.54;82.84;98063.66;4770853;30;20078;-63
2022/07/15 01:42:33;;;;;;;6.50;5.40;;;;;;;15.65;82.76;98067.69;4767329;30;20060;-64
2022/07/15 01:44:59;;;;;;;9.52;5.25;;;;;;;15.71;82.85;98058.47;4768412;30;20055;-64
2022/07/15 01:47:26;;;;;;;5.80;4.95;;;;;;;15.75;82.48;98062.13;4785682;30;20051;-62
2022/07/15 01:49:53;;;;;;;6.70;5.22;;;;;;;15.79;81.91;98062.28;4785592;30;20047;-64
2022/07/15 01:52:31;;;;;;;6.05;5.30;;;;;;;15.76;81.90;98063.69;4785603;30;20417;-61
2022/07/15 01:54:57;;;;;;;6.18;5.32;;;;;;;15.69;82.17;98057.19;4800858;29;20046;-64
2022/07/15 01:57:22;;;;;;;6.20;5.40;;;;;;;15.65;82.34;98057.78;4785568;30;20051;-65
2022/07/15 01:59:54;;;;;;;7.43;5.38;;;;;;;15.62;82.32;98047.69;4784932;30;20529;-63
2022/07/15 02:02:30;;;;;;;7.63;5.43;;;;;;;15.59;82.55;98059.00;4785667;30;20055;-62
2022/07/15 02:04:56;;;;;;;8.77;5.40;;;;;;;15.57;82.72;98063.84;4799969;29;20134;-64
2022/07/15 02:07:23;;;;;;;10.30;7.43;;;;;;;15.50;82.83;98063.47;4786352;29;20055;-63
2022/07/15 02:09:49;;;;;;;7.07;6.43;;;;;;;15.54;82.84;98061.75;4770403;30;20054;-66
2022/07/15 02:12:15;;;;;;;6.30;5.68;;;;;;;15.56;82.42;98064.94;4785498;30;20578;-62
2022/07/15 02:14:46;;;;;;;6.90;5.30;;;;;;;15.60;82.60;98075.78;4770466;30;20043;-62
2022/07/15 02:17:12;;;;;;;8.93;5.38;;;;;;;15.64;82.59;98082.09;4785443;30;20502;-66
2022/07/15 02:19:41;;;;;;;6.03;5.30;;;;;;;15.83;81.86;98079.31;4770578;30;20042;-65
2022/07/15 02:22:06;;;;;;;7.72;5.10;;;;;;;16.01;81.03;98077.53;4785177;30;20057;-63
2022/07/15 02:24:32;;;;;;;7.28;4.95;;;;;;;16.12;80.76;98073.53;4774864;29;20062;-64
2022/07/15 02:26:58;;;;;;;6.47;5.00;;;;;;;16.18;80.11;98066.97;4767276;30;20052;-65
2022/07/15 02:29:26;;;;;;;5.90;5.10;;;;;;;16.18;79.84;98066.97;4782532;29;20048;-64
2022/07/15 02:31:52;;;;;;;7.63;5.28;;;;;;;16.15;80.07;98066.75;4768569;30;20573;-62
2022/07/15 02:34:17;;;;;;;7.35;6.65;;;;;;;16.09;80.07;98074.16;4768345;30;20048;-63
2022/07/15 02:36:43;;;;;;;9.43;6.30;;;;;;;16.08;80.45;98080.56;4767265;30;20057;-62
2022/07/15 02:39:09;;;;;;;6.13;5.35;;;;;;;16.09;80.02;98077.59;4781807;29;20515;-62
2022/07/15 02:41:35;;;;;;;6.68;5.60;;;;;;;16.12;80.12;98086.91;4782110;30;20079;-63
2022/07/15 02:44:06;;;;;;;7.85;5.72;;;;;;;16.12;80.25;98086.91;4781968;29;20507;-63
2022/07/15 02:46:33;;;;;;;9.07;5.50;;;;;;;16.13;79.98;98083.91;4767425;30;20062;-64
2022/07/15 02:48:58;;;;;;;7.20;5.85;;;;;;;16.16;79.96;98085.19;4777012;30;20043;-64
2022/07/15 02:51:25;;;;;;;7.13;5.35;;;;;;;16.22;79.42;98083.97;4784988;30;20130;-62
2022/07/15 02:53:50;;;;;;;7.43;5.28;;;;;;;16.32;79.18;98090.91;4769212;30;20459;-64
2022/07/15 02:56:20;;;;;;;6.88;5.50;;;;;;;16.44;78.74;98096.53;4767996;30;20047;-63
2022/07/15 02:58:46;;;;;;;5.68;5.03;;;;;;;16.49;78.20;98079.53;4767702;30;20109;-65
2022/07/15 03:01:12;;;;;;;7.18;5.63;;;;;;;16.53;77.84;98083.16;4768054;30;20043;-62
2022/07/15 03:03:38;;;;;;;9.63;5.28;;;;;;;16.50;77.82;98079.25;4766729;30;20103;-63
2022/07/15 03:06:06;;;;;;;9.75;6.03;;;;;;;16.51;77.86;98080.81;4781489;30;20062;-62
2022/07/15 03:08:33;;;;;;;6.90;5.10;;;;;;;16.56;77.53;98095.94;4768350;30;20052;-63
2022/07/15 03:10:59;;;;;;;6.10;4.97;;;;;;;17.06;75.85;98095.69;4766597;30;20134;-63
2022/07/15 03:13:25;;;;;;;6.40;5.07;;;;;;;17.76;73.06;98095.75;4781814;30;20192;-63
2022/07/15 03:15:51;;;;;;;5.30;4.57;;;;;;;18.22;71.26;98113.88;4781506;30;20155;-64
2022/07/15 03:18:17;;;;;;;5.93;4.88;;;;;;;18.96;68.51;98112.72;4799746;29;20066;-64
2022/07/15 03:20:45;;;;;;;5.00;4.47;;;;;;;19.39;66.48;98111.69;4787996;30;20055;-64
2022/07/15 03:23:11;;;;;;;8.00;5.13;;;;;;;19.23;66.74;98116.03;4788893;29;20047;-63
2022/07/15 03:25:38;;;;;;;6.15;5.35;;;;;;;18.89;67.85;98117.81;4802525;29;20061;-63
2022/07/15 03:28:09;;;;;;;10.05;6.47;;;;;;;18.70;68.41;98120.84;4787878;30;20078;-63
2022/07/15 03:30:37;;;;;;;9.13;7.05;;;;;;;18.59;68.81;98122.31;4787920;29;20130;-64
2022/07/15 03:33:03;;;;;;;7.00;5.88;;;;;;;18.48;69.47;98119.19;4787978;30;20196;-63
2022/07/15 03:35:29;;;;;;;7.93;6.00;;;;;;;18.35;69.99;98120.97;4787868;30;20047;-63
2022/07/15 03:37:55;;;;;;;5.93;5.30;;;;;;;18.25;70.41;98123.97;4787005;30;20047;-65
2022/07/15 03:40:21;;;;;;;5.57;5.00;;;;;;;18.24;70.08;98135.03;4802857;29;20050;-63
2022/07/15 03:42:47;;;;;;;6.88;4.70;;;;;;;18.19;70.46;98132.50;4787498;29;20070;-62
2022/07/15 03:45:12;;;;;;;5.93;4.55;;;;;;;18.09;70.54;98139.00;4787370;30;20059;-63
2022/07/15 03:47:39;;;;;;;4.57;4.15;;;;;;;17.96;70.78;98140.72;4802813;29;20043;-64
2022/07/15 03:50:09;;;;;;;5.63;3.92;;;;;;;17.85;71.18;98136.75;4787764;30;20255;-64
2022/07/15 03:52:36;;;;;;;5.32;3.90;;;;;;;17.75;71.38;98127.13;4787713;30;20051;-63
2022/07/15 03:55:04;;;;;;;4.65;4.03;;;;;;;17.68;71.80;98142.91;4788674;29;20044;-64
2022/07/15 03:57:30;;;;;;;5.50;4.05;;;;;;;17.79;71.40;98140.72;4799133;29;20129;-63
2022/07/15 03:59:55;;;;;;;5.07;3.53;;;;;;;18.60;68.59;98139.97;4770582;30;20048;-63
2022/07/15 04:02:21;;;;;;;4.32;3.35;;;;;;;19.40;65.54;98129.38;4771022;30;20134;-63
2022/07/15 04:04:47;;;;;;;4.03;3.55;;;;;;;20.05;63.30;98124.47;4784470;30;20062;-65
2022/07/15 04:07:12;;;;;;;3.65;3.35;;;;;;;20.47;61.77;98135.16;4770701;30;20062;-62
2022/07/15 04:09:38;;;;;;;3.85;3.33;;;;;;;20.95;60.37;98144.47;4770860;30;20043;-64
2022/07/15 04:12:04;;;;;;;3.60;3.22;;;;;;;21.25;59.36;98147.72;4784234;30;20415;-63
2022/07/15 04:14:30;;;;;;;5.90;4.40;;;;;;;21.48;58.35;98142.66;4784350;30;20067;-62
2022/07/15 04:16:56;;;;;;;4.10;3.30;;;;;;;21.85;57.19;98139.09;4784501;29;20043;-63
2022/07/15 04:19:33;;;;;;;3.97;3.42;;;;;;;22.02;56.46;98130.72;4784040;30;20186;-63
2022/07/15 04:22:01;;;;;;;6.15;3.47;;;;;;;22.30;55.86;98144.25;4784007;30;20055;-62
2022/07/15 04:24:31;;;;;;;8.52;3.38;;;;;;;22.58;54.27;98156.91;4784071;29;20130;-63
2022/07/15 04:27:00;;;;;;;3.72;2.97;;;;;;;22.63;53.66;98156.66;4783883;30;20060;-64
2022/07/15 04:29:26;;;;;;;5.28;3.00;;;;;;;22.83;53.60;98171.06;4768411;30;20054;-63
2022/07/15 04:31:51;;;;;;;3.17;2.78;;;;;;;23.00;53.67;98173.44;4768978;30;20048;-62
2022/07/15 04:34:25;;;;;;;6.07;2.80;;;;;;;23.08;53.56;98179.78;4783817;29;20059;-62
2022/07/15 04:36:51;;;;;;;3.40;3.08;;;;;;;23.22;53.01;98190.19;4768987;30;20052;-70
2022/07/15 04:39:17;;;;;;;4.10;2.97;;;;;;;23.39;53.14;98202.56;4783454;29;20060;-63
2022/07/15 04:41:43;;;;;;;3.17;2.85;;;;;;;23.58;52.54;98189.84;4770263;30;20468;-63
2022/07/15 04:44:08;;;;;;;3.22;2.90;;;;;;;23.56;52.34;98194.84;4782466;30;20434;-62
2022/07/15 04:46:34;;;;;;;4.10;2.72;;;;;;;23.58;52.37;98197.19;4787859;29;20138;-64
2022/07/15 04:52:12;;;;;;;3.50;2.63;;;;;;;23.93;51.74;98199.91;4786413;30;20055;-64
2022/07/15 04:54:41;;;;;;;4.40;2.50;;;;;;;24.03;51.22;98202.06;4777358;30;20700;-65
2022/07/15 04:57:08;;;;;;;3.08;2.40;;;;;;;24.17;50.58;98206.97;4783280;30;20063;-63
2022/07/15 04:59:34;;;;;;;3.70;2.50;;;;;;;24.29;50.02;98202.56;4783392;30;20520;-64
2022/07/15 05:02:01;;;;;;;3.85;2.80;;;;;;;24.08;50.35;98208.31;4783220;30;20051;-64
2022/07/15 05:04:36;;;;;;;4.53;2.80;;;;;;;24.28;50.73;98212.59;4772302;30;20062;-68
2022/07/15 05:07:02;;;;;;;2.80;2.50;;;;;;;24.50;50.54;98213.81;4786211;29;20055;-66
2022/07/15 05:09:31;;;;;;;3.38;2.80;;;;;;;24.35;50.32;98223.56;4786088;30;20126;-61
2022/07/15 05:11:58;;;;;;;3.40;2.85;;;;;;;24.25;50.85;98216.03;4801042;29;20198;-63
2022/07/15 05:14:25;;;;;;;4.13;2.92;;;;;;;24.09;50.91;98226.94;4760127;30;20051;-62
2022/07/15 05:16:51;;;;;;;5.72;2.88;;;;;;;23.74;51.96;98221.53;4768943;30;20478;-63
2022/07/15 05:19:17;;;;;;;5.95;2.97;;;;;;;23.48;52.05;98198.50;4785826;30;20078;-63
2022/07/15 05:21:42;;;;;;;3.58;2.70;;;;;;;23.35;52.38;98195.13;4786869;29;20430;-62
2022/07/15 05:24:08;;;;;;;4.13;2.80;;;;;;;23.26;53.10;98178.28;4767907;30;20052;-63
2022/07/15 05:26:36;;;;;;;4.22;2.60;;;;;;;23.01;53.17;98176.94;4782845;30;20511;-64
2022/07/15 05:29:01;;;;;;;3.90;2.55;;;;;;;22.78;53.18;98171.31;4767824;30;20082;-64
2022/07/15 05:31:27;;;;;;;3.03;2.60;;;;;;;22.54;54.15;98181.13;4767857;30;20075;-63
2022/07/15 05:33:56;;;;;;;2.75;2.55;;;;;;;22.34;54.13;98155.13;4776573;30;20047;-63
2022/07/15 05:36:22;;;;;;;2.95;2.47;;;;;;;22.28;55.09;98157.28;4780982;30;20430;-64
2022/07/15 05:38:49;;;;;;;4.10;2.75;;;;;;;22.22;54.93;98156.75;4785674;30;20058;-64
2022/07/15 05:41:17;;;;;;;4.45;3.10;;;;;;;22.11;55.30;98157.56;4799713;29;20506;-63
2022/07/15 05:43:43;;;;;;;2.88;2.67;;;;;;;21.90;54.86;98161.22;4785319;29;20059;-63
2022/07/15 05:46:09;;;;;;;4.43;2.40;;;;;;;21.83;55.84;98166.41;4763038;30;20518;-64
2022/07/15 05:48:45;;;;;;;2.60;2.40;;;;;;;21.75;56.09;98170.81;4760400;29;20052;-63
2022/07/15 05:51:12;;;;;;;5.13;2.80;;;;;;;21.76;56.46;98163.50;4782125;29;20118;-62
2022/07/15 05:53:38;;;;;;;3.10;2.80;;;;;;;21.65;56.21;98174.00;4787212;29;20127;-63
2022/07/15 05:56:06;;;;;;;2.88;2.60;;;;;;;21.71;56.36;98175.31;4784840;29;20047;-63
2022/07/15 05:58:33;;;;;;;3.20;2.70;;;;;;;21.81;56.98;98165.97;4791359;29;20055;-62
2022/07/15 06:00:59;;;;;;;3.03;2.70;;;;;;;21.87;56.58;98175.38;4782631;30;20047;-65
2022/07/15 06:03:32;;;;;;;3.22;2.92;;;;;;;21.76;57.66;98183.16;4768559;30;20052;-63
2022/07/15 06:05:59;;;;;;;2.88;2.53;;;;;;;21.84;57.46;98194.19;4767285;30;20048;-63
2022/07/15 06:08:25;;;;;;;2.97;2.60;;;;;;;21.82;57.48;98186.41;4768775;30;20056;-63
2022/07/15 06:10:50;;;;;;;3.85;2.67;;;;;;;21.83;57.07;98179.91;4781402;30;20494;-63
2022/07/15 06:13:20;;;;;;;3.17;2.70;;;;;;;21.73;57.01;98183.84;4802214;29;20054;-61
2022/07/15 06:15:48;;;;;;;2.97;2.70;;;;;;;21.64;57.50;98171.63;4801972;29;20051;-62
2022/07/15 06:18:19;;;;;;;5.22;2.58;;;;;;;21.75;57.36;98170.03;4768307;30;20510;-63
2022/07/15 06:20:45;;;;;;;8.55;4.05;;;;;;;21.81;56.53;98171.38;4784120;30;20058;-62
2022/07/15 06:23:11;;;;;;;5.72;2.72;;;;;;;21.81;56.64;98165.19;4784209;30;20055;-62
2022/07/15 06:25:37;;;;;;;2.95;2.50;;;;;;;21.87;57.34;98159.22;4783629;30;20087;-67
2022/07/15 06:28:03;;;;;;;4.03;2.80;;;;;;;22.03;56.60;98156.59;4784231;30;20055;-63
2022/07/15 06:30:29;;;;;;;2.80;2.60;;;;;;;22.21;55.56;98167.91;4784900;29;20035;-64
2022/07/15 06:32:54;;;;;;;4.43;2.67;;;;;;;22.11;55.72;98158.34;4786364;29;20456;-63
2022/07/15 06:35:20;;;;;;;5.18;2.65;;;;;;;22.14;55.74;98167.66;4784939;30;20043;-63
2022/07/15 06:37:47;;;;;;;5.03;2.80;;;;;;;22.30;54.53;98168.53;4782365;29;20047;-63
2022/07/15 06:40:13;;;;;;;6.35;2.63;;;;;;;22.43;54.25;98166.56;4781585;30;20043;-66
2022/07/15 06:42:38;;;;;;;2.63;2.40;;;;;;;22.35;54.25;98170.19;4779027;30;20146;-63
2022/07/15 06:45:07;;;;;;;8.27;2.70;;;;;;;22.51;53.81;98179.13;4766395;30;20537;-63
2022/07/15 06:47:33;;;;;;;5.90;2.50;;;;;;;22.48;53.27;98184.44;4766793;30;20048;-63
2022/07/15 06:50:04;;;;;;;4.72;2.78;;;;;;;22.55;53.08;98181.91;4782112;30;20066;-65
2022/07/15 06:52:30;;;;;;;2.97;2.40;;;;;;;22.56;53.41;98186.16;4784595;29;20518;-63
2022/07/15 06:54:56;;;;;;;5.32;2.72;;;;;;;22.68;52.65;98191.53;4786137;30;20066;-67
2022/07/15 06:57:23;;;;;;;4.57;2.60;;;;;;;22.72;52.77;98183.50;4786200;30;20051;-64
2022/07/15 06:59:50;;;;;;;5.35;2.60;;;;;;;22.73;51.92;98198.56;4776068;30;20052;-63
2022/07/15 07:02:17;;;;;;;5.07;3.00;;;;;;;22.68;52.10;98200.41;4769773;30;20510;-64
2022/07/15 07:04:43;;;;;;;3.28;2.72;;;;;;;22.84;51.88;98202.34;4788048;30;20050;-67
2022/07/15 07:07:12;;;;;;;2.95;2.75;;;;;;;22.88;51.49;98208.59;4786651;30;20192;-66
2022/07/15 07:09:38;;;;;;;6.18;3.72;;;;;;;22.61;52.46;98202.13;4787014;29;20422;-67
2022/07/15 07:12:05;;;;;;;4.72;2.90;;;;;;;22.42;52.85;98203.56;4784781;30;20047;-62
2022/07/15 07:14:30;;;;;;;5.13;2.97;;;;;;;22.32;53.72;98212.16;4774792;29;20065;-65
2022/07/15 07:16:56;;;;;;;3.67;3.00;;;;;;;22.43;53.29;98209.75;4769562;30;20186;-65
2022/07/15 07:19:22;;;;;;;6.22;3.08;;;;;;;22.49;53.48;98210.28;4778893;30;20039;-64
2022/07/15 07:21:47;;;;;;;9.25;3.00;;;;;;;22.43;52.84;98215.94;4786708;30;20070;-64
2022/07/15 07:24:13;;;;;;;11.43;3.40;;;;;;;22.57;53.11;98214.75;4786061;30;20047;-63
2022/07/15 07:26:39;;;;;;;4.18;2.80;;;;;;;22.62;53.07;98219.91;4787316;29;20521;-65
2022/07/15 07:29:05;;;;;;;3.22;2.70;;;;;;;22.56;52.65;98218.56;4786051;30;20047;-63
2022/07/15 07:31:30;;;;;;;4.15;2.70;;;;;;;22.63;51.56;98219.56;4786320;30;20635;-61
2022/07/15 07:33:57;;;;;;;3.17;2.88;;;;;;;22.72;50.29;98214.00;4784210;30;20366;-62
2022/07/15 07:36:24;;;;;;;2.78;2.50;;;;;;;22.70;50.85;98213.56;4787280;29;20486;-65
2022/07/15 07:38:49;;;;;;;3.53;2.58;;;;;;;22.92;50.15;98214.13;4787424;30;20050;-65
2022/07/15 07:41:15;;;;;;;3.42;3.13;;;;;;;23.01;49.87;98220.94;4784811;30;20043;-63
2022/07/15 07:43:41;;;;;;;3.05;2.80;;;;;;;22.91;49.92;98229.53;4779923;29;20078;-61
2022/07/15 07:46:07;;;;;;;3.30;3.00;;;;;;;22.89;50.22;98221.78;4796210;29;20105;-67
2022/07/15 07:48:32;;;;;;;4.10;3.05;;;;;;;22.80;49.56;98229.28;4792983;29;20062;-65
2022/07/15 07:50:58;;;;;;;5.72;2.75;;;;;;;22.96;50.49;98220.41;4804359;29;20039;-65
2022/07/15 07:53:24;;;;;;;7.32;2.60;;;;;;;23.06;49.99;98218.00;4805549;29;20059;-67
2022/07/15 07:55:50;;;;;;;3.45;2.70;;;;;;;23.38;49.13;98226.06;4805307;29;20104;-65
2022/07/15 07:58:17;;;;;;;7.65;3.33;;;;;;;23.60;48.31;98223.88;4804506;29;20489;-65
2022/07/15 08:00:43;;;;;;;5.65;2.80;;;;;;;23.98;48.71;98231.34;4773722;29;20066;-65
2022/07/15 08:03:09;;;;;;;2.95;2.67;;;;;;;24.20;46.10;98221.72;4795156;29;20039;-64
2022/07/15 08:05:35;;;;;;;3.90;2.90;;;;;;;24.35;46.14;98203.81;4810971;29;20047;-63
2022/07/15 08:08:19;;;;;;;3.88;2.45;;;;;;;24.55;45.17;98207.34;4805858;29;20497;-65
2022/07/15 08:10:48;;;;;;;3.88;2.90;;;;;;;24.66;44.81;98211.81;4784713;30;20145;-64
2022/07/15 08:13:16;;;;;;;2.55;2.35;;;;;;;24.62;45.18;98210.97;4786171;30;20055;-63
2022/07/15 08:15:41;;;;;;;3.83;2.50;;;;;;;24.42;45.25;98220.22;4786315;30;20047;-63
2022/07/15 08:18:07;;;;;;;3.42;2.70;;;;;;;24.53;44.56;98215.84;4785015;30;20506;-64
2022/07/15 08:20:33;;;;;;;4.22;2.25;;;;;;;24.63;43.93;98206.34;4790888;29;20046;-63
2022/07/15 08:23:00;;;;;;;2.92;2.40;;;;;;;24.76;44.20;98210.44;4822053;29;20057;-67
2022/07/15 08:25:32;;;;;;;4.55;2.22;;;;;;;24.87;43.27;98222.25;4821000;29;20122;-64
2022/07/15 08:27:59;;;;;;;3.78;2.90;;;;;;;24.97;42.60;98222.78;4822444;29;20461;-68
2022/07/15 08:30:26;;;;;;;3.17;2.30;;;;;;;25.11;42.36;98228.47;4815025;29;20053;-64
2022/07/15 08:32:52;;;;;;;2.30;2.10;;;;;;;25.05;40.65;98217.13;4805553;29;20046;-64
2022/07/15 08:35:18;;;;;;;2.63;2.13;;;;;;;24.85;41.06;98226.47;4805196;29;20526;-65
2022/07/15 08:37:44;;;;;;;2.20;2.00;;;;;;;24.73;41.15;98230.13;4791879;29;20047;-64
2022/07/15 08:40:10;;;;;;;5.35;2.50;;;;;;;24.47;41.70;98219.94;4802970;29;20444;-66
2022/07/15 08:42:42;;;;;;;2.85;2.20;;;;;;;24.31;42.23;98249.03;4788092;29;20070;-65
2022/07/15 08:45:08;;;;;;;2.55;2.20;;;;;;;23.95;42.68;98253.69;4804440;29;20177;-65
2022/07/15 08:47:38;;;;;;;5.53;2.65;;;;;;;23.93;43.43;98245.13;4788228;29;20382;-65
2022/07/15 08:50:04;;;;;;;7.00;2.50;;;;;;;24.16;43.00;98246.00;4788687;29;20395;-63
2022/07/15 08:52:33;;;;;;;7.30;2.90;;;;;;;24.33;43.13;98258.38;4785556;30;20095;-63
2022/07/15 08:54:58;;;;;;;2.70;2.30;;;;;;;24.09;42.67;98264.03;4786663;30;20055;-64
2022/07/15 08:57:24;;;;;;;3.30;2.30;;;;;;;23.92;43.04;98276.81;4775596;29;20422;-64
2022/07/15 08:59:52;;;;;;;3.55;2.30;;;;;;;23.96;43.84;98266.06;4805120;29;20067;-66
2022/07/15 09:02:21;;;;;;;3.55;2.60;;;;;;;23.96;43.43;98277.69;4804071;29;20063;-65
2022/07/15 09:05:21;;;;;;;4.30;2.55;;;;;;;23.97;43.43;98281.16;4803078;29;20050;-63
2022/07/15 09:07:59;;;;;;;3.13;2.28;;;;;;;24.09;42.34;98286.50;4803129;29;20061;-68
2022/07/15 09:10:49;;;;;;;2.28;2.08;;;;;;;24.23;40.19;98284.06;4786381;29;20043;-64
2022/07/15 09:13:36;;;;;;;2.55;2.10;;;;;;;24.23;40.13;98267.81;4778269;29;20051;-64
2022/07/15 09:16:02;;;;;;;4.13;2.20;;;;;;;24.21;40.09;98272.03;4786135;29;20111;-64
2022/07/15 09:18:36;;;;;;;4.72;2.28;;;;;;;24.07;39.78;98264.38;4787023;29;20053;-65
2022/07/15 09:21:02;;;;;;;6.15;2.80;;;;;;;24.03;40.24;98268.94;4785434;30;20039;-66
2022/07/15 09:23:29;;;;;;;5.40;2.20;;;;;;;23.79;40.39;98270.72;4769227;30;20112;-65
2022/07/15 09:26:16;;;;;;;5.55;2.45;;;;;;;23.62;41.33;98262.16;4768743;30;20053;-65
2022/07/15 09:28:44;;;;;;;5.25;2.42;;;;;;;23.40;41.48;98244.66;4773917;29;20059;-64
2022/07/15 09:34:01;;;;;;;2.63;2.00;;;;;;;23.69;40.80;98260.44;4783268;29;20078;-66
2022/07/15 09:36:30;;;;;;;2.25;2.05;;;;;;;23.86;40.80;98270.13;4784147;29;20083;-64
2022/07/15 09:38:58;;;;;;;3.45;1.90;;;;;;;24.02;40.09;98270.84;4783083;30;20043;-64
2022/07/15 09:41:39;;;;;;;3.60;2.10;;;;;;;24.16;40.28;98266.91;4783251;30;20605;-67
2022/07/15 09:44:10;;;;;;;3.95;2.35;;;;;;;24.25;39.59;98273.66;4783704;30;20139;-64
2022/07/15 09:47:03;;;;;;;3.33;2.22;;;;;;;24.23;37.52;98270.53;4782980;29;20062;-66
2022/07/15 09:49:29;;;;;;;8.50;1.92;;;;;;;24.33;38.04;98263.78;4783848;29;20488;-75
2022/07/15 09:52:02;;;;;;;3.33;2.30;;;;;;;24.38;38.44;98266.19;4793841;29;20050;-61
2022/07/15 09:54:31;;;;;;;4.00;2.30;;;;;;;24.39;39.08;98277.81;4801094;29;20043;-63
2022/07/15 09:56:59;;;;;;;2.75;2.08;;;;;;;24.47;38.81;98283.06;4787349;29;20058;-63
2022/07/15 09:59:24;;;;;;;2.22;1.80;;;;;;;24.41;38.34;98281.75;4784667;30;20414;-65
2022/07/15 10:01:50;;;;;;;2.90;1.73;;;;;;;24.36;37.23;98297.50;4783826;29;20057;-63
2022/07/15 10:04:20;;;;;;;2.58;1.70;;;;;;;24.31;37.26;98290.41;4790176;29;20065;-65
2022/07/15 10:06:48;;;;;;;2.25;1.90;;;;;;;24.35;36.85;98279.66;4789739;29;20054;-63
2022/07/15 10:09:14;;;;;;;3.05;1.90;;;;;;;24.28;37.14;98269.47;4784374;30;20414;-65
2022/07/15 10:11:47;;;;;;;4.90;1.95;;;;;;;24.20;37.88;98281.28;4775244;29;20074;-67
2022/07/15 10:14:40;;;;;;;2.65;1.80;;;;;;;24.07;37.42;98271.72;4768775;30;20051;-64
2022/07/15 10:17:47;;;;;;;4.47;2.90;;;;;;;24.05;37.39;98268.59;4768940;30;20055;-64
2022/07/15 10:20:39;;;;;;;3.35;2.42;;;;;;;24.09;36.94;98264.03;4772725;30;20055;-66
2022/07/15 10:23:13;;;;;;;1.98;1.73;;;;;;;24.06;37.15;98268.25;4785072;29;20521;-65
2022/07/15 10:26:01;;;;;;;3.42;1.90;;;;;;;24.11;37.01;98276.06;4784103;30;20129;-64
2022/07/15 10:28:50;;;;;;;4.43;2.10;;;;;;;24.02;38.11;98262.72;4787754;29;20066;-63
2022/07/15 10:31:25;;;;;;;2.53;2.33;;;;;;;24.00;38.65;98266.94;4787098;29;20482;-64
2022/07/15 10:34:03;;;;;;;4.60;2.10;;;;;;;23.91;37.90;98267.13;4787418;29;20058;-64
2022/07/15 10:36:47;;;;;;;3.22;2.20;;;;;;;24.20;37.43;98267.75;4802593;29;20538;-63
2022/07/15 10:39:17;;;;;;;6.10;2.00;;;;;;;24.38;37.43;98257.28;4801417;29;20649;-63
2022/07/15 10:41:56;;;;;;;;;;;;;;;24.40;36.51;98255.78;4803079;29;20055;-61
2022/07/15 10:44:22;;;;;;;5.53;1.80;;;;;;;24.38;35.93;98255.34;4802611;29;20020;-63
2022/07/15 10:47:14;;;;;;;2.05;1.85;;;;;;;24.42;36.58;98266.28;4771170;29;20050;-61
2022/07/15 10:49:47;;;;;;;2.35;1.75;;;;;;;24.44;36.64;98272.94;4810839;29;20510;-61
2022/07/15 10:52:21;;;;;;;4.07;2.10;;;;;;;24.53;36.21;98283.56;4804846;29;20047;-61
2022/07/15 10:54:55;;;;;;;5.00;1.98;;;;;;;24.57;35.86;98289.81;4821913;29;20398;-60
2022/07/15 10:57:39;;;;;;;2.63;1.90;;;;;;;24.41;36.61;98284.47;4820917;29;20069;-62
2022/07/15 11:00:27;;;;;;;2.92;2.63;;;;;;;24.32;36.30;98297.41;4803795;29;20038;-63
2022/07/15 11:03:13;;;;;;;2.22;1.80;;;;;;;24.40;37.72;98285.56;4820639;29;20058;-61
2022/07/15 11:05:48;;;;;;;3.25;2.03;;;;;;;24.50;37.09;98283.47;4775787;30;20100;-64
2022/07/15 11:08:33;;;;;;;3.15;1.83;;;;;;;24.47;37.20;98290.38;4783585;30;20062;-65
2022/07/15 11:11:14;;;;;;;2.90;2.00;;;;;;;24.54;37.22;98285.13;4785006;29;20074;-63
2022/07/15 11:13:41;;;;;;;5.82;2.20;;;;;;;24.70;37.72;98288.50;4808625;29;20088;-63
2022/07/15 11:16:10;;;;;;;3.30;2.00;;;;;;;24.73;36.95;98287.03;4803834;29;20054;-66
2022/07/15 11:18:54;;;;;;;4.50;1.93;;;;;;;24.78;36.65;98281.31;4789763;29;20142;-63
2022/07/15 11:21:20;;;;;;;6.60;3.25;;;;;;;24.84;36.36;98279.09;4801759;29;20288;-66
2022/07/15 11:23:47;;;;;;;5.63;3.78;;;;;;;24.75;35.71;98273.91;4803886;29;20055;-64
2022/07/15 11:26:13;;;;;;;5.68;2.55;;;;;;;24.67;36.54;98289.22;4798001;29;20039;-64
2022/07/15 11:28:51;;;;;;;2.55;1.75;;;;;;;24.67;37.16;98283.81;4786750;29;20062;-65
2022/07/15 11:31:17;;;;;;;2.97;2.08;;;;;;;24.61;37.48;98287.19;4795090;29;20072;-65
2022/07/15 11:33:42;;;;;;;4.35;2.08;;;;;;;24.61;37.62;98285.25;4799996;29;20061;-64
2022/07/15 11:36:17;;;;;;;2.58;1.88;;;;;;;24.76;37.45;98293.66;4788040;29;20043;-65
2022/07/15 11:38:43;;;;;;;6.20;2.30;;;;;;;24.74;37.72;98294.03;4782912;29;20142;-62
2022/07/15 11:46:46;;;;;;;3.78;2.28;;;;;;;25.00;37.51;98290.66;4790524;29;20584;-64
2022/07/15 11:49:35;;;;;;;5.07;2.20;;;;;;;25.08;37.18;98283.41;4799576;29;20062;-63
2022/07/15 11:52:03;;;;;;;12.00;2.40;;;;;;;25.21;37.51;98292.97;4788441;29;20059;-63
2022/07/15 11:54:29;;;;;;;3.75;2.00;;;;;;;25.06;37.73;98285.69;4786279;29;20301;-62